Time;durP1;ratioP1;P1;durP2;ratioP2;P2;SDS_P1;SDS_P2;PMS_P1;PMS_P2;Temp;Humidity;BMP_temperature;BMP_pressure;BME280_temperature;BME280_humidity;BME280_pressure;Samples;Min_cycle;Max_cycle;Signal;HPM_P1;HPM_P2
2024/01/15 00:01:45;;;;;;;21.35;10.60;;;;;;;-6.81;63.34;97778.13;6277242;22;20008;-64
2024/01/15 00:04:11;;;;;;;18.40;9.70;;;;;;;-6.75;63.19;97773.56;6276047;22;20007;-63
2024/01/15 00:06:36;;;;;;;17.08;9.45;;;;;;;-6.78;63.08;97772.78;6275821;22;20034;-63
2024/01/15 00:09:02;;;;;;;17.98;9.45;;;;;;;-6.77;63.02;97773.66;6276394;22;20082;-63
2024/01/15 00:11:27;;;;;;;19.27;10.73;;;;;;;-6.96;63.28;97766.63;6276695;22;20003;-63
2024/01/15 00:13:53;;;;;;;21.00;10.00;;;;;;;-6.77;62.85;97774.47;6276780;22;19996;-62
2024/01/15 00:16:18;;;;;;;20.98;10.20;;;;;;;-7.14;62.86;97723.19;6276852;22;20472;-63
2024/01/15 00:18:44;;;;;;;23.13;10.98;;;;;;;-6.97;63.75;97757.13;6275705;22;20003;-63
2024/01/15 00:21:10;;;;;;;20.55;10.68;;;;;;;-6.92;63.90;97759.56;6276819;22;20010;-64
2024/01/15 00:23:35;;;;;;;18.15;9.55;;;;;;;-6.87;63.69;97757.59;6276726;22;20004;-63
2024/01/15 00:26:01;;;;;;;21.33;11.13;;;;;;;-6.78;63.49;97751.97;6276604;22;20362;-64
2024/01/15 00:28:26;;;;;;;22.30;10.50;;;;;;;-7.00;63.07;97707.00;6276855;22;20010;-64
2024/01/15 00:30:52;;;;;;;24.48;10.95;;;;;;;-6.74;63.54;97746.66;6276718;22;20009;-63
2024/01/15 00:33:17;;;;;;;19.67;10.35;;;;;;;-6.85;63.50;97714.13;6277011;22;20292;-64
2024/01/15 00:35:43;;;;;;;16.00;8.75;;;;;;;-6.62;63.18;97748.72;6276829;22;20289;-64
2024/01/15 00:38:08;;;;;;;21.73;10.82;;;;;;;-6.64;62.97;97747.94;6276506;22;20727;-64
2024/01/15 00:40:34;;;;;;;20.55;10.77;;;;;;;-6.70;63.74;97740.41;6276626;22;20022;-63
2024/01/15 00:43:02;;;;;;;19.48;10.15;;;;;;;-6.68;63.65;97752.44;6276297;22;20094;-63
2024/01/15 00:45:27;;;;;;;20.58;11.38;;;;;;;-6.66;63.67;97739.34;6276515;22;20384;-62
2024/01/15 00:47:53;;;;;;;20.48;10.93;;;;;;;-6.59;63.92;97737.34;6276516;22;20038;-64
2024/01/15 00:50:18;;;;;;;24.35;11.40;;;;;;;-6.60;63.35;97741.69;6276611;22;20024;-64
2024/01/15 00:52:44;;;;;;;23.00;10.50;;;;;;;-6.66;63.20;97713.31;6276651;22;20007;-64
2024/01/15 00:55:09;;;;;;;19.88;11.23;;;;;;;-6.58;63.91;97726.84;6276865;22;20035;-63
2024/01/15 00:57:35;;;;;;;21.42;10.90;;;;;;;-6.50;63.25;97729.09;6275991;22;20000;-63
2024/01/15 01:00:00;;;;;;;22.27;11.32;;;;;;;-6.89;63.62;97676.16;6275258;22;20078;-63
2024/01/15 01:02:26;;;;;;;20.10;11.85;;;;;;;-6.61;64.12;97726.16;6276503;22;20397;-64
2024/01/15 01:04:51;;;;;;;25.35;11.93;;;;;;;-6.56;63.48;97714.59;6276479;22;20046;-63
2024/01/15 01:07:17;;;;;;;22.15;11.93;;;;;;;-6.58;63.81;97710.38;6276637;22;20289;-62
2024/01/15 01:09:43;;;;;;;23.23;11.18;;;;;;;-6.53;63.98;97713.63;6276581;22;20004;-64
2024/01/15 01:12:09;;;;;;;21.08;11.23;;;;;;;-6.50;63.22;97718.69;6275534;22;20086;-64
2024/01/15 01:14:34;;;;;;;18.67;9.90;;;;;;;-6.44;63.06;97700.16;6276462;22;20031;-62
2024/01/15 01:17:00;;;;;;;21.13;11.45;;;;;;;-6.51;63.70;97697.03;6276198;22;20003;-62
2024/01/15 01:19:26;;;;;;;20.05;11.27;;;;;;;-6.56;63.96;97703.34;6275210;22;20042;-62
2024/01/15 01:21:51;;;;;;;23.13;11.20;;;;;;;-6.51;63.62;97710.03;6276815;22;20339;-63
2024/01/15 01:24:17;;;;;;;20.65;10.85;;;;;;;-6.92;63.74;97647.69;6276502;22;20004;-62
2024/01/15 01:26:42;;;;;;;21.15;11.70;;;;;;;-6.95;63.78;97624.41;6249515;22;20003;-62
2024/01/15 01:29:08;;;;;;;23.05;11.90;;;;;;;-6.62;63.83;97688.84;6276475;22;20404;-63
2024/01/15 01:31:33;;;;;;;22.08;11.77;;;;;;;-6.59;64.55;97680.88;6276359;22;20003;-64
2024/01/15 01:33:59;;;;;;;20.90;11.15;;;;;;;-6.56;64.07;97682.53;6276158;22;20071;-62
2024/01/15 01:36:24;;;;;;;23.30;11.52;;;;;;;-6.56;63.84;97674.72;6276864;22;20062;-63
2024/01/15 01:38:50;;;;;;;23.02;11.70;;;;;;;-6.52;64.39;97682.28;6278342;22;20076;-63
2024/01/15 01:41:16;;;;;;;21.60;12.13;;;;;;;-6.52;64.21;97677.09;6251445;22;20011;-62
2024/01/15 01:43:41;;;;;;;22.40;12.65;;;;;;;-6.57;64.59;97681.66;6278576;22;20008;-62
2024/01/15 01:46:07;;;;;;;23.83;11.80;;;;;;;-6.47;64.28;97674.28;6278346;22;20166;-63
2024/01/15 01:48:33;;;;;;;21.65;12.23;;;;;;;-6.47;64.70;97681.25;6277338;22;20024;-62
2024/01/15 01:51:02;;;;;;;25.20;11.82;;;;;;;-6.47;64.71;97663.88;6278258;22;20288;-63
2024/01/15 01:53:29;;;;;;;22.65;12.05;;;;;;;-6.41;64.23;97670.56;6278116;22;20015;-63
2024/01/15 01:55:57;;;;;;;21.58;10.65;;;;;;;-6.25;64.30;97666.31;6277982;22;19999;-59
2024/01/15 01:58:22;;;;;;;21.88;11.63;;;;;;;-6.82;64.04;97583.06;6278256;22;20007;-63
2024/01/15 02:00:49;;;;;;;24.25;12.82;;;;;;;-6.38;64.46;97650.44;6277926;22;20003;-64
2024/01/15 02:03:15;;;;;;;21.40;12.00;;;;;;;-6.26;64.31;97659.44;6278249;22;20008;-63
2024/01/15 02:05:44;;;;;;;21.23;11.07;;;;;;;-6.52;64.34;97619.81;6278302;22;20003;-63
2024/01/15 02:08:09;;;;;;;21.52;11.40;;;;;;;-6.18;64.45;97663.44;6278180;22;20292;-63
2024/01/15 02:10:35;;;;;;;26.90;13.00;;;;;;;-6.17;65.08;97671.16;6278305;22;20069;-64
2024/01/15 02:13:01;;;;;;;21.15;12.10;;;;;;;-6.12;65.04;97666.59;6278020;22;20004;-64
2024/01/15 02:15:26;;;;;;;21.83;12.07;;;;;;;-6.00;64.28;97651.25;6277914;22;20077;-63
2024/01/15 02:18:02;;;;;;;22.88;12.15;;;;;;;-5.96;64.49;97661.47;6278023;22;20014;-63
2024/01/15 02:20:29;;;;;;;23.52;12.52;;;;;;;-6.03;64.60;97660.06;6278103;22;20019;-63
2024/01/15 02:23:07;;;;;;;22.10;11.77;;;;;;;-5.96;64.40;97651.03;6277506;22;20038;-62
2024/01/15 02:25:32;;;;;;;23.23;12.02;;;;;;;-5.88;64.00;97661.09;6277047;22;20050;-64
2024/01/15 02:27:58;;;;;;;25.80;12.32;;;;;;;-5.95;63.93;97631.88;6277891;22;20004;-64
2024/01/15 02:30:25;;;;;;;24.10;12.63;;;;;;;-5.82;64.38;97660.78;6278209;22;20270;-63
2024/01/15 02:32:51;;;;;;;21.17;11.43;;;;;;;-5.85;64.01;97647.03;6277965;22;20145;-62
2024/01/15 02:35:17;;;;;;;21.60;12.35;;;;;;;-5.78;64.21;97651.06;6278207;22;20369;-62
2024/01/15 02:37:43;;;;;;;21.45;12.82;;;;;;;-5.78;63.70;97649.28;6277639;22;20004;-63
2024/01/15 02:40:09;;;;;;;25.33;12.35;;;;;;;-5.80;64.41;97645.91;6277528;22;20405;-64
2024/01/15 02:42:34;;;;;;;23.50;12.43;;;;;;;-5.79;64.01;97664.97;6275532;22;20007;-63
2024/01/15 02:45:00;;;;;;;23.33;12.57;;;;;;;-5.76;63.97;97664.84;6274053;22;19999;-64
2024/01/15 02:47:26;;;;;;;23.60;12.75;;;;;;;-5.75;64.05;97643.09;6276043;22;20355;-64
2024/01/15 02:49:51;;;;;;;21.05;12.13;;;;;;;-5.68;64.42;97649.66;6275090;22;20344;-64
2024/01/15 02:52:17;;;;;;;24.58;12.57;;;;;;;-5.58;64.30;97654.41;6275956;22;20224;-63
2024/01/15 02:54:42;;;;;;;24.45;12.85;;;;;;;-5.66;64.68;97645.22;6275715;22;20086;-63
2024/01/15 02:57:08;;;;;;;23.38;12.23;;;;;;;-5.56;64.10;97650.81;6275351;22;20058;-64
2024/01/15 02:59:33;;;;;;;22.75;12.23;;;;;;;-5.45;64.20;97654.63;6276013;22;20007;-63
2024/01/15 03:01:59;;;;;;;23.33;12.02;;;;;;;-5.47;64.15;97646.91;6275417;22;20303;-63
2024/01/15 03:04:24;;;;;;;26.25;13.25;;;;;;;-5.50;64.03;97650.50;6275915;22;20385;-63
2024/01/15 03:06:50;;;;;;;23.02;12.00;;;;;;;-5.46;64.22;97651.22;6275443;22;20434;-64
2024/01/15 03:09:15;;;;;;;24.17;12.75;;;;;;;-5.41;63.89;97633.56;6274628;22;20046;-63
2024/01/15 03:11:41;;;;;;;22.35;12.68;;;;;;;-5.40;64.27;97637.03;6275217;22;20008;-62
2024/01/15 03:14:06;;;;;;;24.73;13.38;;;;;;;-5.29;63.95;97633.88;6275401;22;20223;-62
2024/01/15 03:16:32;;;;;;;23.13;13.57;;;;;;;-5.39;64.23;97633.50;6275299;22;20404;-63
2024/01/15 03:18:57;;;;;;;24.88;13.85;;;;;;;-5.44;64.13;97618.06;6275543;22;20026;-63
2024/01/15 03:21:23;;;;;;;23.75;12.90;;;;;;;-5.38;64.64;97643.81;6275286;22;20036;-63
2024/01/15 03:23:48;;;;;;;23.45;13.32;;;;;;;-5.35;63.67;97625.41;6275271;22;19999;-64
2024/01/15 03:26:14;;;;;;;24.73;12.90;;;;;;;-5.25;64.25;97619.75;6275270;22;20081;-63
2024/01/15 03:28:39;;;;;;;23.48;12.32;;;;;;;-5.29;64.27;97607.78;6274822;22;20068;-63
2024/01/15 03:31:05;;;;;;;23.48;13.35;;;;;;;-5.51;64.03;97577.59;6274917;22;20004;-63
2024/01/15 03:33:30;;;;;;;26.15;13.05;;;;;;;-5.19;64.53;97616.81;6275303;22;20004;-63
2024/01/15 03:35:56;;;;;;;23.73;12.20;;;;;;;-5.15;64.08;97626.16;6275482;22;20004;-64
2024/01/15 03:38:23;;;;;;;24.05;13.55;;;;;;;-5.12;64.30;97627.78;6275385;22;20095;-63
2024/01/15 03:40:49;;;;;;;23.13;13.32;;;;;;;-5.14;64.11;97613.97;6223474;22;1198865;-64
2024/01/15 03:43:15;;;;;;;26.15;13.60;;;;;;;-5.08;64.18;97617.06;6276007;22;20019;-63
2024/01/15 03:45:40;;;;;;;27.23;13.77;;;;;;;-5.09;64.67;97620.59;6276420;22;20007;-63
2024/01/15 03:48:06;;;;;;;25.38;13.82;;;;;;;-5.07;64.15;97613.53;6276593;22;20004;-63
2024/01/15 03:50:31;;;;;;;25.60;13.27;;;;;;;-5.09;64.49;97589.28;6276316;22;20015;-62
2024/01/15 03:52:57;;;;;;;25.25;13.82;;;;;;;-5.02;64.76;97599.44;6276132;22;20014;-63
2024/01/15 03:55:22;;;;;;;25.45;13.70;;;;;;;-4.95;64.60;97606.00;6276879;22;20393;-63
2024/01/15 03:57:47;;;;;;;26.63;13.63;;;;;;;-4.94;64.19;97616.38;6276173;22;19999;-63
2024/01/15 04:00:17;;;;;;;26.63;14.25;;;;;;;-4.92;64.02;97600.59;6275989;22;20006;-64
2024/01/15 04:02:42;;;;;;;24.65;13.43;;;;;;;-4.91;64.70;97607.50;6276643;22;20050;-64
2024/01/15 04:05:08;;;;;;;28.88;14.25;;;;;;;-4.93;64.44;97593.69;6276734;22;20003;-64
2024/01/15 04:07:33;;;;;;;26.48;14.23;;;;;;;-5.12;64.78;97558.16;6275033;22;20008;-62
2024/01/15 04:09:59;;;;;;;26.25;14.23;;;;;;;-5.13;64.36;97545.19;6276286;22;20000;-63
2024/01/15 04:12:25;;;;;;;23.63;14.38;;;;;;;-4.80;64.59;97607.78;6275864;22;20004;-63
2024/01/15 04:14:50;;;;;;;28.30;14.13;;;;;;;-4.76;64.60;97601.47;6276451;22;20014;-64
2024/01/15 04:17:16;;;;;;;29.48;15.40;;;;;;;-4.82;65.35;97600.97;6275912;22;20079;-64
2024/01/15 04:19:44;;;;;;;24.52;13.95;;;;;;;-5.07;65.51;97550.91;6276075;22;20301;-65
2024/01/15 04:22:09;;;;;;;27.27;14.07;;;;;;;-4.85;65.58;97601.97;6274494;22;20004;-63
2024/01/15 04:24:35;;;;;;;29.23;14.75;;;;;;;-4.79;65.95;97606.00;6276557;22;20042;-63
2024/01/15 04:27:00;;;;;;;24.67;14.25;;;;;;;-4.77;65.57;97601.56;6275458;22;20160;-63
2024/01/15 04:29:26;;;;;;;25.70;14.20;;;;;;;-4.72;65.29;97596.91;6275780;22;20003;-63
2024/01/15 04:31:52;;;;;;;27.38;13.45;;;;;;;-4.70;65.74;97604.69;6275472;22;20004;-62
2024/01/15 04:34:18;;;;;;;28.27;14.77;;;;;;;-4.70;65.33;97597.69;6274446;22;20409;-64
2024/01/15 04:36:43;;;;;;;28.27;14.75;;;;;;;-4.74;65.59;97605.78;6276111;22;20022;-63
2024/01/15 04:39:09;;;;;;;25.92;13.75;;;;;;;-4.73;65.55;97578.75;6275340;22;20385;-63
2024/01/15 04:41:34;;;;;;;28.23;14.73;;;;;;;-4.65;65.86;97592.22;6275043;22;20016;-64
2024/01/15 04:44:01;;;;;;;28.67;15.20;;;;;;;-4.57;65.66;97597.00;6276596;22;20026;-63
2024/01/15 04:46:26;;;;;;;22.83;13.60;;;;;;;-4.63;65.72;97582.53;6275302;22;20011;-64
2024/01/15 04:48:52;;;;;;;25.60;14.27;;;;;;;-4.67;65.94;97597.53;6275106;22;20004;-63
2024/01/15 04:51:17;;;;;;;25.58;14.73;;;;;;;-4.65;66.04;97585.22;6275566;22;20702;-64
2024/01/15 04:53:44;;;;;;;26.33;14.05;;;;;;;-4.59;66.14;97585.81;6275405;22;20313;-63
2024/01/15 04:56:09;;;;;;;26.45;14.68;;;;;;;-4.57;66.39;97584.81;6275749;22;20008;-64
2024/01/15 04:58:35;;;;;;;26.10;14.43;;;;;;;-4.51;65.89;97581.84;6273857;22;20008;-63
2024/01/15 05:01:00;;;;;;;26.27;14.48;;;;;;;-4.50;66.29;97595.75;6274362;22;20007;-64
2024/01/15 05:03:26;;;;;;;28.30;13.85;;;;;;;-4.47;66.26;97580.75;6275403;22;20068;-64
2024/01/15 05:05:51;;;;;;;28.95;15.45;;;;;;;-4.52;66.08;97567.13;6275474;22;20003;-64
2024/01/15 05:08:17;;;;;;;27.67;14.65;;;;;;;-4.40;66.13;97593.47;6275192;22;20014;-63
2024/01/15 05:10:42;;;;;;;28.67;14.93;;;;;;;-4.75;66.08;97539.66;6274129;22;20388;-64
2024/01/15 05:13:08;;;;;;;27.80;15.35;;;;;;;-4.47;66.14;97582.50;6248915;22;20004;-64
2024/01/15 05:15:33;;;;;;;26.73;15.23;;;;;;;-4.41;65.89;97584.81;6275446;22;19996;-62
2024/01/15 05:17:59;;;;;;;30.52;15.25;;;;;;;-4.44;66.36;97589.34;6275890;22;20373;-65
2024/01/15 05:20:24;;;;;;;29.27;15.25;;;;;;;-4.51;66.91;97583.63;6274274;22;20031;-65
2024/01/15 05:22:50;;;;;;;31.73;16.10;;;;;;;-4.50;66.96;97573.09;6274890;22;20050;-63
2024/01/15 05:25:15;;;;;;;26.42;14.40;;;;;;;-4.49;67.21;97577.38;6274618;22;20038;-64
2024/01/15 05:27:41;;;;;;;31.52;14.90;;;;;;;-4.40;66.98;97576.03;6275692;22;20015;-64
2024/01/15 05:30:06;;;;;;;27.08;15.52;;;;;;;-4.35;67.21;97584.44;6275589;22;20000;-64
2024/01/15 05:32:32;;;;;;;29.98;16.58;;;;;;;-4.30;66.47;97581.59;6275726;22;20100;-64
2024/01/15 05:34:58;;;;;;;30.17;16.33;;;;;;;-4.25;66.42;97584.78;6275949;22;20023;-64
2024/01/15 05:37:23;;;;;;;27.52;14.45;;;;;;;-4.22;66.52;97581.13;6275066;22;20082;-64
2024/01/15 05:39:49;;;;;;;30.33;15.75;;;;;;;-4.22;66.23;97589.81;6275431;22;20388;-64
2024/01/15 05:42:15;;;;;;;29.17;15.77;;;;;;;-4.21;66.72;97580.22;6276025;22;20015;-64
2024/01/15 05:44:40;;;;;;;30.67;15.13;;;;;;;-4.23;66.46;97590.75;6275458;22;20349;-64
2024/01/15 05:47:06;;;;;;;27.85;15.57;;;;;;;-4.21;67.37;97591.50;6275309;22;20059;-63
2024/01/15 05:49:31;;;;;;;32.33;16.67;;;;;;;-4.20;66.85;97584.53;6276065;22;20254;-65
2024/01/15 05:51:57;;;;;;;27.42;15.13;;;;;;;-4.21;67.24;97570.59;6276001;22;20007;-65
2024/01/15 05:54:22;;;;;;;28.30;16.52;;;;;;;-4.22;67.05;97574.16;6275121;22;20010;-63
2024/01/15 05:56:48;;;;;;;30.25;15.50;;;;;;;-4.09;66.85;97579.53;6274979;22;20081;-64
2024/01/15 05:59:13;;;;;;;30.90;16.25;;;;;;;-4.27;66.47;97542.22;6275687;22;20039;-63
2024/01/15 06:01:39;;;;;;;26.58;15.70;;;;;;;-4.12;66.35;97558.78;6274318;22;20000;-64
2024/01/15 06:04:04;;;;;;;29.15;16.60;;;;;;;-3.95;66.43;97591.78;6274588;22;20362;-64
2024/01/15 06:06:30;;;;;;;29.00;16.13;;;;;;;-3.95;66.17;97572.69;6275219;22;20018;-62
2024/01/15 06:08:55;;;;;;;30.52;15.65;;;;;;;-3.88;66.23;97587.06;6275727;22;20031;-64
2024/01/15 06:11:21;;;;;;;29.77;15.68;;;;;;;-3.84;66.39;97582.50;6276105;22;20003;-64
2024/01/15 06:13:46;;;;;;;29.38;16.35;;;;;;;-3.83;66.22;97578.97;6275169;22;20092;-63
2024/01/15 06:16:15;;;;;;;27.60;15.55;;;;;;;-3.69;66.22;97578.16;6275263;22;20007;-64
2024/01/15 06:18:40;;;;;;;29.70;15.65;;;;;;;-3.71;66.02;97586.06;6273938;22;20000;-63
2024/01/15 06:21:06;;;;;;;30.20;16.33;;;;;;;-3.71;66.55;97578.22;6276355;22;20004;-63
2024/01/15 06:23:31;;;;;;;30.05;15.68;;;;;;;-3.69;66.01;97583.38;6276717;22;20004;-64
2024/01/15 06:25:56;;;;;;;32.03;17.15;;;;;;;-3.70;66.25;97576.47;6277007;22;20081;-64
2024/01/15 06:28:22;;;;;;;29.48;16.20;;;;;;;-3.69;66.62;97565.91;6275634;22;20081;-69
2024/01/15 06:30:48;;;;;;;28.45;15.43;;;;;;;-3.55;66.22;97596.47;6276592;22;20456;-62
2024/01/15 06:33:13;;;;;;;29.60;16.10;;;;;;;-3.53;65.84;97576.28;6277151;22;20403;-59
2024/01/15 06:35:39;;;;;;;31.52;16.88;;;;;;;-3.48;66.40;97579.50;6275287;22;20007;-61
2024/01/15 06:38:04;;;;;;;27.90;15.57;;;;;;;-3.46;66.04;97566.31;6277239;22;20003;-56
2024/01/15 06:40:30;;;;;;;32.85;17.33;;;;;;;-3.26;65.65;97590.44;6277623;22;20026;-57
2024/01/15 06:42:56;;;;;;;31.40;16.52;;;;;;;-3.26;65.15;97579.97;6277138;22;20007;-59
2024/01/15 06:45:21;;;;;;;29.90;16.38;;;;;;;-3.28;65.70;97584.47;6276078;22;20008;-61
2024/01/15 06:47:47;;;;;;;32.30;15.93;;;;;;;-3.18;65.44;97580.34;6276722;22;20252;-58
2024/01/15 06:50:12;;;;;;;30.60;16.75;;;;;;;-3.12;65.84;97574.75;6277417;22;20091;-61
2024/01/15 06:52:38;;;;;;;28.63;16.35;;;;;;;-3.36;66.03;97530.84;6276861;22;20004;-60
2024/01/15 06:55:04;;;;;;;29.55;15.73;;;;;;;-3.01;65.77;97589.81;6276870;22;20027;-61
2024/01/15 06:57:29;;;;;;;29.73;16.73;;;;;;;-3.00;65.69;97588.03;6275648;22;20000;-61
2024/01/15 06:59:55;;;;;;;27.10;15.60;;;;;;;-2.99;65.23;97577.47;6276536;22;20061;-58
2024/01/15 07:02:21;;;;;;;27.60;15.90;;;;;;;-2.92;65.26;97598.84;6277110;22;20359;-61
2024/01/15 07:04:46;;;;;;;27.98;16.38;;;;;;;-2.92;65.98;97597.09;6276694;22;20008;-62
2024/01/15 07:07:12;;;;;;;29.88;16.33;;;;;;;-3.12;65.28;97534.63;6275899;22;20003;-62
2024/01/15 07:09:37;;;;;;;29.73;15.95;;;;;;;-2.76;66.01;97578.66;6275235;22;20050;-62
2024/01/15 07:12:03;;;;;;;29.38;15.77;;;;;;;-2.75;65.77;97576.88;6276410;22;20000;-53
2024/01/15 07:14:29;;;;;;;28.77;16.95;;;;;;;-2.63;65.37;97581.34;6275167;22;20038;-62
2024/01/15 07:16:54;;;;;;;23.85;13.52;;;;;;;-2.53;64.72;97585.97;6274940;22;20117;-60
2024/01/15 07:19:20;;;;;;;31.05;17.38;;;;;;;-2.58;64.83;97583.69;6276455;22;20004;-62
2024/01/15 07:21:45;;;;;;;28.65;16.38;;;;;;;-2.67;64.95;97573.75;6277122;22;20000;-61
2024/01/15 07:24:11;;;;;;;30.02;16.65;;;;;;;-2.53;64.74;97581.59;6276577;22;20006;-63
2024/01/15 07:26:36;;;;;;;32.67;17.52;;;;;;;-2.57;65.59;97580.13;6275458;22;20011;-61
2024/01/15 07:29:03;;;;;;;31.02;17.02;;;;;;;-2.52;65.47;97585.91;6275151;22;20089;-60
2024/01/15 07:31:28;;;;;;;28.58;16.33;;;;;;;-2.39;64.73;97587.75;6276680;22;20004;-59
2024/01/15 07:33:54;;;;;;;31.67;16.83;;;;;;;-2.35;64.93;97582.19;6273479;22;20014;-60
2024/01/15 07:36:19;;;;;;;27.60;14.68;;;;;;;-2.46;64.45;97540.13;6276174;22;20381;-58
2024/01/15 07:38:45;;;;;;;26.83;16.55;;;;;;;-2.24;64.54;97580.69;6277122;22;20134;-60
2024/01/15 07:41:10;;;;;;;29.08;15.85;;;;;;;-2.17;64.79;97574.97;6276603;22;20480;-60
2024/01/15 07:43:35;;;;;;;29.80;16.13;;;;;;;-2.19;64.67;97574.19;6276419;22;20008;-62
2024/01/15 07:46:02;;;;;;;28.02;16.52;;;;;;;-2.14;65.30;97575.69;6276810;22;20086;-61
2024/01/15 07:48:28;;;;;;;29.90;17.08;;;;;;;-2.08;65.03;97572.66;6275514;22;20000;-62
2024/01/15 07:50:53;;;;;;;28.50;16.95;;;;;;;-1.89;64.70;97572.28;6272242;22;20003;-59
2024/01/15 07:53:19;;;;;;;28.63;16.38;;;;;;;-1.86;64.60;97577.31;6271004;22;20050;-57
2024/01/15 07:55:46;;;;;;;28.88;16.38;;;;;;;-1.74;64.29;97581.78;6273308;22;19999;-60
2024/01/15 07:58:11;;;;;;;30.67;17.17;;;;;;;-1.79;64.63;97570.75;6271256;22;20145;-57
2024/01/15 08:00:37;;;;;;;28.80;16.35;;;;;;;-1.56;63.62;97571.00;6274738;22;20003;-56
2024/01/15 08:03:03;;;;;;;30.70;17.77;;;;;;;-1.61;64.03;97568.69;6274828;22;20031;-63
2024/01/15 08:05:28;;;;;;;32.30;17.23;;;;;;;-1.60;63.81;97575.59;6276709;22;20000;-62
2024/01/15 08:07:54;;;;;;;29.45;17.25;;;;;;;-1.57;64.05;97565.84;6276187;22;20402;-64
2024/01/15 08:10:19;;;;;;;28.00;16.08;;;;;;;-1.41;63.88;97563.88;6273835;22;20305;-69
2024/01/15 08:12:45;;;;;;;30.52;17.33;;;;;;;-1.32;63.72;97573.72;6274699;22;20039;-63
2024/01/15 08:15:10;;;;;;;30.63;16.25;;;;;;;-1.09;63.76;97558.19;6276889;22;20086;-61
2024/01/15 08:17:36;;;;;;;31.02;17.13;;;;;;;-0.74;61.93;97568.00;6275941;22;20003;-67
2024/01/15 08:20:02;;;;;;;28.70;16.98;;;;;;;-0.74;62.35;97569.78;6247994;22;20004;-61
2024/01/15 08:22:28;;;;;;;29.17;16.52;;;;;;;-0.74;62.56;97562.72;6274900;22;20012;-61
2024/01/15 08:24:55;;;;;;;25.88;16.52;;;;;;;-0.63;62.73;97569.84;6276295;22;20458;-61
2024/01/15 08:27:20;;;;;;;29.20;16.50;;;;;;;-0.54;62.19;97570.16;6274666;22;20061;-60
2024/01/15 08:29:46;;;;;;;28.85;16.50;;;;;;;-0.79;62.56;97519.38;6274443;22;20011;-56
2024/01/15 08:32:14;;;;;;;24.48;15.77;;;;;;;-0.83;62.01;97508.22;6276064;22;20004;-62
2024/01/15 08:34:39;;;;;;;28.90;16.70;;;;;;;-0.72;62.23;97515.34;6276621;22;20027;-63
2024/01/15 08:37:05;;;;;;;27.17;16.50;;;;;;;-0.42;62.27;97563.19;6275687;22;20007;-61
2024/01/15 08:39:30;;;;;;;27.25;16.55;;;;;;;-0.45;62.02;97575.59;6274488;22;20401;-60
2024/01/15 08:41:56;;;;;;;26.00;15.95;;;;;;;-0.67;62.48;97546.56;6274070;22;20058;-53
2024/01/15 08:44:21;;;;;;;32.53;18.15;;;;;;;-0.59;62.75;97586.25;6275994;22;20035;-59
2024/01/15 08:46:47;;;;;;;31.40;17.45;;;;;;;-0.65;63.17;97569.13;6275316;22;20023;-54
2024/01/15 08:49:12;;;;;;;25.90;16.52;;;;;;;-0.67;63.38;97576.28;6275657;22;19999;-56
2024/01/15 08:51:39;;;;;;;27.98;17.27;;;;;;;-0.64;63.28;97570.81;6274881;22;20004;-54
2024/01/15 08:54:04;;;;;;;31.40;17.80;;;;;;;-0.87;63.64;97522.53;6274739;22;20007;-60
2024/01/15 08:56:30;;;;;;;28.40;16.25;;;;;;;-0.45;63.43;97574.75;6275526;22;20079;-60
2024/01/15 08:58:55;;;;;;;27.30;16.85;;;;;;;-0.37;63.45;97568.94;6274787;22;20085;-56
2024/01/15 09:01:21;;;;;;;27.02;16.88;;;;;;;-0.37;62.94;97564.50;6274466;22;20004;-53
2024/01/15 09:03:48;;;;;;;28.17;15.65;;;;;;;-0.36;62.99;97568.00;6275466;22;20067;-56
2024/01/15 09:06:13;;;;;;;28.05;17.67;;;;;;;-0.44;62.84;97574.66;6275217;22;20000;-61
2024/01/15 09:08:39;;;;;;;30.77;17.58;;;;;;;-0.55;63.18;97555.34;6274575;22;20004;-56
2024/01/15 09:11:04;;;;;;;29.48;15.70;;;;;;;-0.47;63.38;97568.78;6274996;22;20041;-53
2024/01/15 09:13:30;;;;;;;26.35;15.35;;;;;;;-0.49;62.86;97579.38;6274077;22;20407;-56
2024/01/15 09:15:56;;;;;;;29.15;15.90;;;;;;;-0.65;63.17;97553.34;6275054;22;20003;-58
2024/01/15 09:18:22;;;;;;;26.00;15.80;;;;;;;-0.57;63.77;97571.22;6274294;22;20034;-57
2024/01/15 09:20:47;;;;;;;28.63;15.85;;;;;;;-0.56;63.50;97574.69;6274830;22;20007;-57
2024/01/15 09:23:13;;;;;;;28.25;16.38;;;;;;;-0.57;63.09;97555.44;6274840;22;20056;-60
2024/01/15 09:25:38;;;;;;;25.58;15.48;;;;;;;-0.46;62.96;97562.56;6275886;22;20006;-57
2024/01/15 09:28:04;;;;;;;27.90;16.38;;;;;;;-0.40;62.48;97548.16;6273976;22;20015;-54
2024/01/15 09:30:29;;;;;;;29.33;16.92;;;;;;;-0.37;62.50;97558.44;6274703;22;20007;-57
2024/01/15 09:32:55;;;;;;;30.55;17.30;;;;;;;-0.30;62.55;97560.50;6275489;22;20403;-57
2024/01/15 09:35:20;;;;;;;27.23;15.82;;;;;;;-0.23;62.66;97563.53;6275394;22;20004;-58
2024/01/15 09:37:46;;;;;;;23.55;15.35;;;;;;;-0.23;62.40;97570.56;6272876;22;20004;-61
2024/01/15 09:40:17;;;;;;;24.88;15.82;;;;;;;-0.32;63.30;97569.44;6274848;22;20077;-56
2024/01/15 09:42:43;;;;;;;26.52;15.90;;;;;;;-0.33;62.87;97562.50;6276050;22;20083;-58
2024/01/15 09:45:09;;;;;;;28.33;16.80;;;;;;;-0.32;63.42;97562.41;6274754;22;20023;-57
2024/01/15 09:47:36;;;;;;;28.45;16.50;;;;;;;-0.48;63.57;97535.53;6274495;22;20451;-57
2024/01/15 09:50:03;;;;;;;27.25;16.13;;;;;;;-0.21;63.37;97569.53;6275520;22;19999;-58
2024/01/15 09:52:30;;;;;;;29.52;16.80;;;;;;;-0.06;62.47;97564.94;6274507;22;20072;-57
2024/01/15 09:55:01;;;;;;;26.85;15.75;;;;;;;-0.04;63.08;97570.06;6273820;22;20375;-54
2024/01/15 09:57:26;;;;;;;26.38;14.95;;;;;;;-0.02;62.89;97576.06;6274786;22;20400;-58
2024/01/15 09:59:53;;;;;;;26.23;15.95;;;;;;;-0.04;63.14;97564.81;6277403;22;20129;-58
2024/01/15 10:02:19;;;;;;;24.98;16.10;;;;;;;-0.15;62.87;97550.66;6277020;22;20040;-58
2024/01/15 10:04:45;;;;;;;30.02;16.20;;;;;;;0.02;62.94;97577.53;6276831;22;20293;-61
2024/01/15 10:07:16;;;;;;;28.13;15.88;;;;;;;0.10;62.89;97566.41;6277090;22;20000;-57
2024/01/15 10:09:42;;;;;;;27.20;15.43;;;;;;;0.11;62.93;97568.94;6276967;22;20008;-56
2024/01/15 10:12:09;;;;;;;24.08;14.65;;;;;;;0.17;62.79;97566.81;6277561;22;20019;-55
2024/01/15 10:14:34;;;;;;;26.45;15.95;;;;;;;0.21;62.60;97560.34;6276524;22;20460;-55
2024/01/15 10:17:00;;;;;;;26.85;15.60;;;;;;;0.30;62.43;97558.84;6276729;22;20028;-56
2024/01/15 10:19:25;;;;;;;24.25;14.60;;;;;;;0.31;62.03;97564.00;6276648;22;20008;-56
2024/01/15 10:21:51;;;;;;;25.67;14.93;;;;;;;0.23;62.00;97554.03;6276697;22;20676;-57
2024/01/15 10:24:17;;;;;;;24.75;15.05;;;;;;;0.21;62.22;97563.84;6275976;22;20008;-58
2024/01/15 10:26:42;;;;;;;24.50;14.55;;;;;;;0.17;62.23;97574.69;6275758;22;20014;-54
2024/01/15 10:29:08;;;;;;;24.27;14.80;;;;;;;0.14;62.81;97562.63;6276273;22;20007;-56
2024/01/15 10:31:33;;;;;;;23.88;14.32;;;;;;;0.17;62.57;97570.28;6277390;22;20018;-57
2024/01/15 10:34:12;;;;;;;22.58;13.63;;;;;;;0.27;62.66;97573.06;6276825;22;20000;-59
2024/01/15 10:36:41;;;;;;;24.40;14.40;;;;;;;0.16;62.61;97575.66;6276405;22;20004;-56
2024/01/15 10:39:07;;;;;;;23.67;14.50;;;;;;;0.13;62.79;97567.03;6275434;22;20007;-55
2024/01/15 10:41:34;;;;;;;24.23;15.00;;;;;;;0.11;62.66;97574.22;6276660;22;20282;-57
2024/01/15 10:43:59;;;;;;;25.73;15.55;;;;;;;0.07;62.80;97553.50;6275681;22;20018;-58
2024/01/15 10:46:25;;;;;;;23.67;15.32;;;;;;;0.17;62.41;97578.19;6275774;22;20007;-56
2024/01/15 10:48:51;;;;;;;23.92;14.52;;;;;;;-0.10;62.67;97525.81;6276294;22;20035;-57
2024/01/15 10:51:17;;;;;;;26.95;14.60;;;;;;;-0.16;62.86;97517.41;6276707;22;20003;-54
2024/01/15 10:53:46;;;;;;;27.98;15.88;;;;;;;0.12;62.80;97564.50;6275972;22;20031;-54
2024/01/15 10:56:13;;;;;;;25.45;14.82;;;;;;;0.17;62.52;97566.81;6276503;22;20116;-58
2024/01/15 10:58:39;;;;;;;25.27;14.55;;;;;;;0.11;62.67;97560.19;6276421;22;20008;-56
2024/01/15 11:01:06;;;;;;;24.17;14.98;;;;;;;0.07;63.09;97567.50;6276291;22;20014;-59
2024/01/15 11:03:32;;;;;;;24.63;14.57;;;;;;;-0.01;62.61;97554.03;6276316;22;20035;-58
2024/01/15 11:05:59;;;;;;;27.00;15.93;;;;;;;-0.08;63.22;97553.69;6276764;22;20007;-53
2024/01/15 11:08:25;;;;;;;25.58;15.88;;;;;;;-0.04;63.00;97565.66;6274841;22;20038;-56
2024/01/15 11:10:52;;;;;;;28.77;14.85;;;;;;;0.00;62.99;97563.66;6275430;22;20070;-56